Dorking, United Kingdom
Current Conditions -  °F | °C
As of 12:50 PM on Friday 24 Oct 2014 (Local Time) from EGKK Reporting Station
Broken Clouds Broken Clouds  
Wind Chill: 61°   Ceiling: 1600
Heat Index: 61°   Visibility: 6mi
Dew Point: 57°   Wind: 7mph
Humidity: 88%   Direction: 220°SW
Pressure: 29.97"   Gusts: NA
Location:  51.23°N, 0.33°W
Report Text: EGKK 241150Z 22006KT 9999 FEW011 BKN016 16/14 Q1015
Loading
Personal Weather Stations






























Interactive Weather Map New forecast layout! Learn more

10-Day Weather Forecast

Advertisements
Track Severe Weather on mobile